Overview Statistics Trail Chart Weather Telemetry Raw packets
 

This is the latest recevied weather packets stored in our database for station/object PE1RXF-13. If no packets are shown the sender has not sent any weather packets the latest 10 day(s).

<< 17 18 19 20 21 22 23 >>
Time Temp. Humidity Pressure Rain* Wind** Luminosity Snow
1788182499 20.56° C 96% 1007.3 hPa 0 mm - 140 W/m² -
1788181396 15.56° C 99% 1007.3 hPa 0 mm - 25 W/m² -
1788180293 16.11° C 99% 1007.1 hPa 0.76 mm - 40 W/m² -
1788179190 16.67° C 99% 1007.2 hPa 0.76 mm - 137 W/m² -
1788178087 20° C 99% 1006.9 hPa 0.76 mm - 19 W/m² -
1788176984 21.67° C 99% 1006.6 hPa 1.78 mm - 70 W/m² -
1788175882 18.33° C 99% 1007 hPa 1.78 mm - 84 W/m² -
1788174778 17.22° C 99% 1006.6 hPa 1.78 mm - 38 W/m² -
1788173675 19.44° C 99% 1006.3 hPa 0 mm - 42 W/m² -
1788172572 17.22° C 99% 1006.6 hPa 0 mm - 92 W/m² -
1788171469 20.56° C 90% 1006.6 hPa 0 mm - 25 W/m² -
1788170366 22.78° C 84% 1006.8 hPa 0 mm - 106 W/m² -
1788169263 21.67° C 90% 1006.8 hPa 0 mm - 173 W/m² -
1788168160 20.56° C 96% 1006.8 hPa 0 mm - 58 W/m² -
1788167057 22.78° C 84% 1006.7 hPa 0 mm - 101 W/m² -
1788165954 21.11° C 98% 1006.6 hPa 0 mm - 166 W/m² -
1788164851 20° C 98% 1006.7 hPa 0 mm - 51 W/m² -
1788163748 19.44° C 99% 1006.8 hPa 0 mm - 121 W/m² -
1788162645 17.78° C 99% 1007 hPa 0 mm - 48 W/m² -
1788161542 17.78° C 99% 1007.1 hPa 0 mm - 30 W/m² -
1788160440 18.89° C 99% 1007 hPa 0 mm - 45 W/m² -
1788159336 20° C 99% 1006.9 hPa 0 mm - 67 W/m² -
1788158233 17.78° C 99% 1006.7 hPa 0 mm - 40 W/m² -
1788157130 16.67° C 99% 1006.8 hPa 0 mm - 18 W/m² -
1788156027 16.11° C 99% 1006.7 hPa 0 mm - 29 W/m² -

* Rain latest hour (hover to see other rain measurements)
** Current wind speed in m/s (hover to see current wind gust speed)